Tessenderlo, Belgium
Current Conditions -  °F | °C
As of 3:03 PM on Saturday 25 Oct 2014 (Local Time) from EBDT Reporting Station
Broken Clouds Broken Clouds  
Wind Chill: 57°   Ceiling: 1200
Heat Index: 57°   Visibility: 6mi
Dew Point: 55°   Wind: 3mph
Humidity: 94%   Direction: 230°SW
Pressure: 30.09"   Gusts: NA
Location:  51.07°N, 5.09°E
Report Text: EBDT 251303Z AUTO 23003KT 9000 FEW005/// SCT008/// BKN012/// 14/13 Q1019 GRN
Loading
Personal Weather Stations






























Interactive Weather Map New forecast layout! Learn more

10-Day Weather Forecast

Advertisements
Track Severe Weather on mobile